Time;durP1;ratioP1;P1;durP2;ratioP2;P2;SDS_P1;SDS_P2;PMS_P1;PMS_P2;Temp;Humidity;BMP_temperature;BMP_pressure;BME280_temperature;BME280_humidity;BME280_pressure;Samples;Min_cycle;Max_cycle;Signal;HPM_P1;HPM_P2
2021/04/29 00:00:11;;;;;;;20.42;11.00;;;;;;;11.23;49.36;99621.41;5061516;28;20053;-66
2021/04/29 00:02:37;;;;;;;15.70;10.40;;;;;;;11.21;49.16;99621.44;5067160;28;20102;-69
2021/04/29 00:05:04;;;;;;;18.23;9.40;;;;;;;11.23;49.42;99616.22;5058940;28;20399;-66
2021/04/29 00:07:30;;;;;;;21.92;10.00;;;;;;;11.20;49.24;99619.75;5056392;28;20045;-67
2021/04/29 00:09:56;;;;;;;18.05;10.32;;;;;;;11.17;49.74;99620.72;5060598;28;20068;-69
2021/04/29 00:12:23;;;;;;;17.15;10.07;;;;;;;11.06;49.97;99617.69;5059615;28;20053;-68
2021/04/29 00:14:49;;;;;;;18.85;9.43;;;;;;;11.00;50.52;99615.34;5068003;28;20053;-66
2021/04/29 00:17:15;;;;;;;18.25;9.82;;;;;;;11.03;50.33;99612.59;5067849;28;20631;-68
2021/04/29 00:19:41;;;;;;;20.48;9.15;;;;;;;11.01;50.52;99614.44;5059099;28;20443;-66
2021/04/29 00:22:07;;;;;;;20.98;10.10;;;;;;;10.96;51.06;99611.16;5056591;28;20041;-68
2021/04/29 00:24:33;;;;;;;18.85;10.65;;;;;;;10.94;51.15;99606.03;5061699;28;20675;-66
2021/04/29 00:26:59;;;;;;;18.98;9.55;;;;;;;10.89;50.65;99605.34;5064789;28;20060;-65
2021/04/29 00:29:26;;;;;;;18.77;10.00;;;;;;;10.91;51.28;99607.91;5060215;28;20045;-67
2021/04/29 00:31:52;;;;;;;15.05;9.32;;;;;;;10.95;50.68;99612.06;5065106;28;20074;-68
2021/04/29 00:34:18;;;;;;;18.05;9.75;;;;;;;10.94;50.76;99605.16;5060448;28;20044;-65
2021/04/29 00:36:44;;;;;;;21.83;10.10;;;;;;;10.92;50.90;99600.03;5055985;28;20055;-67
2021/04/29 00:39:10;;;;;;;18.00;10.68;;;;;;;10.94;50.72;99597.34;5062478;28;20144;-66
2021/04/29 00:41:36;;;;;;;22.45;10.20;;;;;;;10.95;50.71;99599.06;5054853;28;20055;-67
2021/04/29 00:44:02;;;;;;;19.05;9.25;;;;;;;10.82;51.68;99599.56;5063012;28;20082;-66
2021/04/29 00:46:29;;;;;;;20.08;10.10;;;;;;;10.86;51.11;99595.09;5056426;28;20104;-66
2021/04/29 00:48:56;;;;;;;18.48;9.50;;;;;;;10.89;51.82;99602.75;5060883;28;20510;-66
2021/04/29 00:51:22;;;;;;;20.25;9.73;;;;;;;10.93;51.65;99600.91;5062621;28;20052;-65
2021/04/29 00:53:49;;;;;;;24.02;10.10;;;;;;;11.05;50.95;99603.00;5064326;28;20506;-65
2021/04/29 00:56:15;;;;;;;18.42;9.65;;;;;;;11.12;51.00;99594.06;5056774;28;20547;-68
2021/04/29 00:58:41;;;;;;;16.65;10.38;;;;;;;11.16;51.48;99598.22;5060218;28;20048;-66
2021/04/29 01:01:08;;;;;;;20.58;9.68;;;;;;;11.12;51.43;99604.47;5055975;28;20064;-66
2021/04/29 01:03:41;;;;;;;17.50;10.15;;;;;;;11.09;51.73;99601.13;5063561;28;20102;-67
2021/04/29 01:06:12;;;;;;;19.90;10.38;;;;;;;11.09;51.92;99606.31;5059532;28;20048;-66
2021/04/29 01:08:42;;;;;;;16.50;9.88;;;;;;;10.99;52.22;99605.84;5059979;28;20090;-67
2021/04/29 01:11:11;;;;;;;19.42;10.25;;;;;;;10.92;52.28;99610.44;5060756;28;20052;-66
2021/04/29 01:13:41;;;;;;;26.17;10.13;;;;;;;10.91;52.25;99613.09;5068774;28;20037;-67
2021/04/29 01:16:08;;;;;;;16.70;9.95;;;;;;;10.89;52.82;99618.34;5057550;28;20052;-66
2021/04/29 01:18:37;;;;;;;15.80;10.05;;;;;;;10.87;53.22;99618.41;5056715;28;20122;-68
2021/04/29 01:21:05;;;;;;;16.05;10.07;;;;;;;10.78;53.26;99613.56;5059698;28;20045;-68
2021/04/29 01:23:42;;;;;;;15.38;10.32;;;;;;;10.77;53.81;99618.84;5062462;28;20532;-67
2021/04/29 01:26:14;;;;;;;24.17;11.60;;;;;;;10.84;53.65;99628.09;5059245;28;20443;-66
2021/04/29 01:28:41;;;;;;;19.33;10.23;;;;;;;10.73;54.05;99623.28;5052291;28;20045;-67
2021/04/29 01:31:09;;;;;;;17.05;9.88;;;;;;;10.82;53.84;99625.56;5054920;28;20041;-66
2021/04/29 01:33:36;;;;;;;20.08;9.95;;;;;;;10.88;54.21;99629.66;5059429;28;20055;-66
2021/04/29 01:36:04;;;;;;;16.23;9.98;;;;;;;10.96;53.85;99632.84;5056588;28;20059;-68
2021/04/29 01:38:30;;;;;;;18.33;10.10;;;;;;;11.02;53.48;99627.38;5051406;28;20821;-66
2021/04/29 01:40:57;;;;;;;15.45;9.93;;;;;;;11.06;52.89;99633.31;5059462;28;20040;-66
2021/04/29 01:43:23;;;;;;;16.73;9.35;;;;;;;11.13;53.26;99631.31;5060606;28;20057;-67
2021/04/29 01:45:51;;;;;;;18.02;10.35;;;;;;;11.12;53.83;99624.41;5066817;28;20049;-67
2021/04/29 01:48:17;;;;;;;15.27;10.32;;;;;;;11.09;53.36;99628.00;5059634;28;20055;-67
2021/04/29 01:50:43;;;;;;;15.13;9.70;;;;;;;11.10;53.92;99624.50;5056347;28;20053;-67
2021/04/29 01:53:09;;;;;;;20.48;10.57;;;;;;;11.09;53.68;99633.19;5057949;28;20045;-67
2021/04/29 01:55:35;;;;;;;17.88;9.82;;;;;;;11.04;53.87;99624.72;5058557;28;20126;-66
2021/04/29 01:58:02;;;;;;;16.75;10.93;;;;;;;11.06;53.79;99635.09;5057850;28;20053;-64
2021/04/29 02:00:28;;;;;;;17.08;10.20;;;;;;;10.95;54.32;99625.94;5062562;28;20051;-66
2021/04/29 02:02:54;;;;;;;18.58;10.07;;;;;;;10.94;54.53;99625.97;5060322;28;20072;-67
2021/04/29 02:05:20;;;;;;;18.33;10.45;;;;;;;10.94;54.74;99623.38;5064444;28;20044;-66
2021/04/29 02:07:46;;;;;;;18.05;9.98;;;;;;;10.85;54.63;99630.63;5062076;28;20044;-67
2021/04/29 02:10:16;;;;;;;20.00;10.27;;;;;;;10.97;54.16;99624.13;5063430;28;20687;-68
2021/04/29 02:12:45;;;;;;;21.90;10.27;;;;;;;11.01;53.74;99624.84;5063311;28;20053;-68
2021/04/29 02:15:13;;;;;;;17.92;9.93;;;;;;;10.92;54.41;99625.22;5066252;28;20044;-67
2021/04/29 02:17:43;;;;;;;20.40;10.50;;;;;;;10.80;55.16;99621.31;5066059;28;20090;-67
2021/04/29 02:20:12;;;;;;;23.80;11.40;;;;;;;10.88;55.07;99625.31;5054566;28;20056;-67
2021/04/29 02:22:40;;;;;;;17.08;10.30;;;;;;;10.90;55.06;99633.06;5059891;28;20414;-66
2021/04/29 02:25:08;;;;;;;19.35;10.23;;;;;;;10.80;55.79;99632.56;5068952;28;20197;-67
2021/04/29 02:27:35;;;;;;;18.23;11.40;;;;;;;10.78;55.18;99636.97;5058541;28;20426;-67
2021/04/29 02:30:03;;;;;;;20.75;10.82;;;;;;;10.76;55.53;99636.19;5057652;28;20494;-66
2021/04/29 02:32:29;;;;;;;20.08;10.77;;;;;;;10.70;55.17;99632.06;5057712;28;20477;-66
2021/04/29 02:34:55;;;;;;;20.45;10.77;;;;;;;10.72;55.62;99632.88;5060440;28;20052;-66
2021/04/29 02:37:23;;;;;;;17.02;10.98;;;;;;;10.74;55.49;99638.00;5063749;28;20127;-66
2021/04/29 02:39:49;;;;;;;14.98;10.90;;;;;;;10.65;56.36;99634.00;5061441;28;20059;-66
2021/04/29 02:42:15;;;;;;;15.85;10.77;;;;;;;10.64;55.94;99631.44;5059207;28;20533;-68
2021/04/29 02:44:42;;;;;;;19.05;10.60;;;;;;;10.66;56.44;99634.84;5055929;28;20044;-65
2021/04/29 02:47:08;;;;;;;19.35;10.75;;;;;;;10.75;56.62;99626.69;5060010;28;20563;-68
2021/04/29 02:49:34;;;;;;;14.07;9.77;;;;;;;10.81;57.16;99636.00;5061172;28;20060;-68
2021/04/29 02:52:01;;;;;;;17.50;10.05;;;;;;;10.85;57.50;99633.25;5057720;28;20071;-68
2021/04/29 02:54:28;;;;;;;16.42;9.32;;;;;;;10.93;57.32;99632.94;5059982;28;20044;-67
2021/04/29 02:56:54;;;;;;;16.83;9.00;;;;;;;10.94;58.13;99634.66;5058337;28;20086;-66
2021/04/29 02:59:20;;;;;;;15.35;9.38;;;;;;;11.00;58.23;99638.78;5059339;28;20037;-67
2021/04/29 03:01:46;;;;;;;19.30;9.13;;;;;;;10.95;58.49;99636.34;5063749;28;20466;-65
2021/04/29 03:04:12;;;;;;;18.05;9.88;;;;;;;10.97;59.02;99644.09;5058332;28;20063;-66
2021/04/29 03:06:38;;;;;;;13.88;9.05;;;;;;;11.02;59.21;99639.56;5066168;28;20374;-65
2021/04/29 03:09:05;;;;;;;17.63;10.30;;;;;;;11.05;59.49;99636.81;5069405;28;20464;-66
2021/04/29 03:11:34;;;;;;;14.68;9.95;;;;;;;11.04;59.56;99635.13;5073284;28;20418;-66
2021/04/29 03:14:00;;;;;;;14.60;8.82;;;;;;;11.02;59.55;99632.59;5057162;28;20494;-66
2021/04/29 03:16:26;;;;;;;21.80;11.00;;;;;;;11.01;60.12;99630.91;5063715;28;20045;-66
2021/04/29 03:18:52;;;;;;;15.00;9.15;;;;;;;11.12;59.46;99625.28;5065346;28;20403;-66
2021/04/29 03:21:18;;;;;;;15.13;10.02;;;;;;;10.98;60.16;99640.56;5065878;28;20125;-65
2021/04/29 03:23:44;;;;;;;15.90;10.45;;;;;;;11.03;60.24;99633.44;5066440;28;20052;-66
2021/04/29 03:26:10;;;;;;;16.23;10.07;;;;;;;10.94;60.00;99634.66;5062946;28;20083;-66
2021/04/29 03:28:37;;;;;;;16.85;10.02;;;;;;;10.93;60.09;99632.13;5063742;28;20135;-67
2021/04/29 03:31:03;;;;;;;16.95;10.73;;;;;;;10.97;59.52;99633.69;5060493;28;20040;-66
2021/04/29 03:33:29;;;;;;;18.13;11.48;;;;;;;10.94;60.01;99639.84;5064257;28;20727;-65
2021/04/29 03:35:55;;;;;;;17.88;11.35;;;;;;;11.07;58.48;99640.22;5062394;28;20052;-66
2021/04/29 03:38:21;;;;;;;17.73;11.80;;;;;;;10.93;58.75;99639.91;5065102;28;20049;-69
2021/04/29 03:40:48;;;;;;;20.77;10.88;;;;;;;10.89;59.21;99645.22;5059661;28;20068;-66
2021/04/29 03:43:14;;;;;;;18.73;11.75;;;;;;;10.81;59.47;99643.81;5057965;28;20151;-67
2021/04/29 03:45:41;;;;;;;23.45;11.93;;;;;;;10.82;58.18;99655.91;5058134;28;20480;-67
2021/04/29 03:48:08;;;;;;;20.48;11.25;;;;;;;10.85;57.79;99648.84;5058396;28;20076;-66
2021/04/29 03:50:35;;;;;;;20.88;11.75;;;;;;;10.77;57.56;99647.47;5057170;28;20051;-67
2021/04/29 03:53:01;;;;;;;19.77;12.20;;;;;;;10.75;56.88;99650.09;5065633;28;20063;-67
2021/04/29 03:55:27;;;;;;;23.17;10.75;;;;;;;10.84;56.52;99652.34;5066143;28;20414;-67
2021/04/29 03:57:53;;;;;;;21.52;11.35;;;;;;;10.71;56.29;99653.75;5060034;28;20044;-64
2021/04/29 04:00:19;;;;;;;19.17;10.80;;;;;;;10.70;56.58;99660.66;5057187;28;20064;-66
2021/04/29 04:02:46;;;;;;;18.92;10.55;;;;;;;10.77;55.57;99657.88;5058214;28;20080;-66
2021/04/29 04:05:13;;;;;;;19.73;10.93;;;;;;;10.65;55.48;99659.16;5060163;28;20071;-67
2021/04/29 04:07:39;;;;;;;16.60;10.82;;;;;;;10.63;55.34;99658.38;5067160;28;20091;-68
2021/04/29 04:10:07;;;;;;;20.60;10.77;;;;;;;10.57;55.47;99662.88;5068435;28;20049;-67
2021/04/29 04:12:33;;;;;;;19.15;11.55;;;;;;;10.51;55.97;99660.53;5059012;28;20083;-67
2021/04/29 04:14:59;;;;;;;17.45;11.40;;;;;;;10.51;56.18;99663.13;5066728;28;20366;-66
2021/04/29 04:17:25;;;;;;;23.50;11.48;;;;;;;10.58;55.64;99664.59;5060478;28;20143;-67
2021/04/29 04:19:52;;;;;;;20.73;12.88;;;;;;;10.51;55.34;99670.91;5062211;28;20433;-65
2021/04/29 04:22:18;;;;;;;21.05;11.75;;;;;;;10.49;55.86;99680.53;5067421;28;20048;-65
2021/04/29 04:24:44;;;;;;;20.60;11.18;;;;;;;10.45;56.00;99681.53;5057210;28;20129;-72
2021/04/29 04:27:10;;;;;;;18.98;10.80;;;;;;;10.63;55.69;99686.97;5051894;28;20048;-71
2021/04/29 04:29:37;;;;;;;18.48;11.25;;;;;;;10.44;56.16;99684.19;5062281;28;20045;-67
2021/04/29 04:32:03;;;;;;;16.98;10.88;;;;;;;10.35;56.31;99683.59;5068404;28;20048;-64
2021/04/29 04:34:30;;;;;;;19.60;11.98;;;;;;;10.42;55.99;99692.06;5075916;28;20051;-67
2021/04/29 04:36:57;;;;;;;19.67;11.68;;;;;;;10.44;56.26;99698.03;5073543;28;20063;-65
2021/04/29 04:39:23;;;;;;;17.58;11.77;;;;;;;10.42;56.69;99700.69;5073163;28;20489;-66
2021/04/29 04:41:49;;;;;;;17.40;11.48;;;;;;;10.45;55.92;99696.28;5066698;28;20060;-65
2021/04/29 04:44:15;;;;;;;19.63;11.73;;;;;;;10.44;56.15;99702.38;5069710;28;20053;-66
2021/04/29 04:46:41;;;;;;;18.30;12.05;;;;;;;10.36;56.69;99710.41;5066603;28;20084;-69
2021/04/29 04:49:07;;;;;;;19.92;11.43;;;;;;;10.32;56.52;99714.88;5059868;28;20040;-69
2021/04/29 04:51:33;;;;;;;20.60;12.48;;;;;;;10.25;56.96;99706.44;5058947;28;20045;-66
2021/04/29 04:54:00;;;;;;;23.73;13.40;;;;;;;10.16;57.54;99717.16;5062101;28;20053;-66
2021/04/29 04:56:27;;;;;;;18.02;10.65;;;;;;;10.25;57.11;99724.63;5059164;28;20071;-66
2021/04/29 04:58:53;;;;;;;19.23;11.90;;;;;;;10.19;57.02;99726.56;5074626;28;20125;-67
2021/04/29 05:01:19;;;;;;;18.30;11.25;;;;;;;10.11;57.82;99738.09;5067854;28;20044;-69
2021/04/29 05:03:45;;;;;;;21.40;11.43;;;;;;;10.10;58.06;99732.97;5069368;28;20711;-68
2021/04/29 05:06:11;;;;;;;21.65;12.63;;;;;;;10.05;57.75;99737.44;5073251;28;20116;-68
2021/04/29 05:08:37;;;;;;;20.15;12.15;;;;;;;10.00;58.48;99741.97;5071530;28;20058;-68
2021/04/29 05:11:04;;;;;;;19.13;11.45;;;;;;;10.11;58.12;99752.84;5073798;28;20402;-67
2021/04/29 05:13:30;;;;;;;18.42;11.80;;;;;;;10.12;57.71;99754.53;5065733;28;20037;-67
2021/04/29 05:15:56;;;;;;;18.30;12.00;;;;;;;10.16;57.73;99745.72;5077182;28;20049;-67
2021/04/29 05:18:24;;;;;;;21.02;12.13;;;;;;;10.29;56.84;99748.75;5076123;28;20190;-69
2021/04/29 05:20:50;;;;;;;20.67;11.25;;;;;;;10.35;55.95;99756.38;5064468;28;20390;-67
2021/04/29 05:23:16;;;;;;;22.38;10.88;;;;;;;10.21;57.04;99761.16;5064894;28;20045;-66
2021/04/29 05:25:42;;;;;;;19.67;11.93;;;;;;;10.19;56.63;99761.22;5072008;28;20059;-68
2021/04/29 05:28:09;;;;;;;16.80;11.68;;;;;;;10.15;57.33;99761.38;5067112;28;20048;-67
2021/04/29 05:30:35;;;;;;;20.13;12.20;;;;;;;10.24;56.67;99766.28;5070439;28;20063;-66
2021/04/29 05:33:01;;;;;;;19.15;12.32;;;;;;;10.20;56.90;99769.88;5067912;28;20047;-67
2021/04/29 05:35:27;;;;;;;21.60;11.63;;;;;;;10.22;56.31;99771.53;5063426;28;20127;-67
2021/04/29 05:37:53;;;;;;;18.40;10.93;;;;;;;10.39;55.39;99767.53;5066988;28;20076;-66
2021/04/29 05:40:19;;;;;;;21.10;11.32;;;;;;;10.34;55.73;99774.59;5064961;28;20500;-66
2021/04/29 05:42:45;;;;;;;20.23;11.60;;;;;;;10.48;55.04;99769.81;5066552;28;20051;-66
2021/04/29 05:45:13;;;;;;;19.77;11.32;;;;;;;10.60;54.60;99772.91;5068618;28;20389;-69
2021/04/29 05:47:40;;;;;;;21.35;11.95;;;;;;;10.70;54.50;99774.28;5067287;28;20651;-67
2021/04/29 05:50:07;;;;;;;17.27;11.40;;;;;;;10.94;54.14;99776.88;5069829;28;20048;-68
2021/04/29 05:52:33;;;;;;;16.90;10.70;;;;;;;11.22;52.48;99775.91;5059494;28;20056;-68
2021/04/29 05:54:59;;;;;;;19.58;11.13;;;;;;;11.42;51.98;99770.78;5064899;28;20043;-66
2021/04/29 05:57:25;;;;;;;18.08;10.38;;;;;;;11.63;50.95;99773.44;5075534;28;20105;-67
2021/04/29 05:59:51;;;;;;;16.77;10.32;;;;;;;11.57;50.77;99773.69;5073577;28;20127;-68
2021/04/29 06:02:18;;;;;;;19.90;11.70;;;;;;;11.53;51.10;99775.56;5074913;28;20043;-67
2021/04/29 06:04:44;;;;;;;23.83;11.40;;;;;;;11.62;50.84;99771.75;5060569;28;20391;-68
2021/04/29 06:07:13;;;;;;;20.33;11.35;;;;;;;11.70;50.54;99774.91;5062699;28;20052;-68
2021/04/29 06:09:39;;;;;;;19.80;10.88;;;;;;;11.96;49.70;99778.22;5062870;28;20049;-67
2021/04/29 06:12:06;;;;;;;17.05;10.50;;;;;;;12.11;50.57;99782.84;5073868;28;20053;-67
2021/04/29 06:14:32;;;;;;;20.77;12.10;;;;;;;12.42;48.29;99775.50;5057571;28;20083;-68
2021/04/29 06:16:58;;;;;;;22.15;11.02;;;;;;;12.38;48.13;99780.00;5067684;28;20158;-65
2021/04/29 06:19:24;;;;;;;15.55;11.02;;;;;;;12.41;47.86;99784.22;5066881;28;20048;-67
2021/04/29 06:21:50;;;;;;;18.13;11.68;;;;;;;12.43;48.44;99778.03;5072422;28;20094;-67
2021/04/29 06:24:16;;;;;;;22.38;10.70;;;;;;;12.42;48.65;99781.56;5073554;28;20067;-67
2021/04/29 06:26:42;;;;;;;20.77;11.57;;;;;;;12.32;48.86;99785.47;5079588;28;20382;-68
2021/04/29 06:29:09;;;;;;;16.05;11.27;;;;;;;12.27;48.61;99785.69;5066783;28;20057;-69
2021/04/29 06:31:39;;;;;;;15.43;9.93;;;;;;;12.27;49.31;99784.81;5058836;28;20036;-68
2021/04/29 06:34:06;;;;;;;27.63;11.38;;;;;;;12.47;48.76;99796.16;5066245;28;20079;-68
2021/04/29 06:36:33;;;;;;;18.58;10.88;;;;;;;12.61;48.90;99788.63;5057742;28;20394;-68
2021/04/29 06:38:59;;;;;;;15.68;10.32;;;;;;;12.81;48.62;99779.91;5068332;28;20485;-68
2021/04/29 06:41:25;;;;;;;19.65;10.55;;;;;;;12.86;47.95;99788.41;5067322;28;20048;-68
2021/04/29 06:43:51;;;;;;;18.35;10.90;;;;;;;12.88;47.31;99788.31;5060835;28;20500;-68
2021/04/29 06:46:17;;;;;;;18.38;10.90;;;;;;;12.89;47.37;99797.84;5066911;28;20072;-68
2021/04/29 06:48:43;;;;;;;16.17;10.35;;;;;;;13.00;47.69;99799.97;5064706;28;20666;-66
2021/04/29 06:51:10;;;;;;;16.83;10.13;;;;;;;12.93;47.16;99801.16;5062571;28;20037;-67
2021/04/29 06:53:36;;;;;;;15.05;10.15;;;;;;;12.80;47.65;99799.09;5068361;28;20127;-67
2021/04/29 06:56:03;;;;;;;15.27;9.63;;;;;;;12.86;48.32;99803.19;5066913;28;20048;-68
2021/04/29 06:58:31;;;;;;;16.25;10.13;;;;;;;12.87;48.29;99800.53;5078635;28;20036;-67
2021/04/29 07:00:57;;;;;;;23.50;11.05;;;;;;;12.89;48.17;99805.69;5075786;28;20119;-68
2021/04/29 07:03:23;;;;;;;17.70;11.45;;;;;;;12.79;48.22;99804.38;5070016;28;20056;-67
2021/04/29 07:05:49;;;;;;;19.23;10.63;;;;;;;12.80;48.25;99806.06;5069385;28;20040;-68
2021/04/29 07:08:15;;;;;;;17.30;10.77;;;;;;;12.86;48.72;99808.41;5080613;28;20051;-68
2021/04/29 07:10:42;;;;;;;19.55;10.15;;;;;;;12.91;48.40;99809.06;5080338;28;20053;-68
2021/04/29 07:13:08;;;;;;;20.45;11.52;;;;;;;12.96;48.41;99811.47;5070743;28;20787;-67
2021/04/29 07:15:34;;;;;;;18.05;10.73;;;;;;;12.95;48.19;99813.22;5070456;28;20047;-68
2021/04/29 07:18:02;;;;;;;16.95;11.40;;;;;;;13.04;48.56;99817.19;5077495;28;20657;-67
2021/04/29 07:20:29;;;;;;;21.13;11.43;;;;;;;12.96;48.97;99817.53;5079850;28;20044;-68
2021/04/29 07:22:55;;;;;;;17.98;10.52;;;;;;;13.08;49.46;99818.75;5081432;28;20091;-69
2021/04/29 07:25:23;;;;;;;21.75;11.80;;;;;;;13.28;49.16;99823.09;5082323;28;20048;-67
2021/04/29 07:27:50;;;;;;;19.45;11.27;;;;;;;13.18;49.09;99820.03;5078440;28;20044;-67
2021/04/29 07:30:16;;;;;;;16.25;10.40;;;;;;;13.27;48.76;99818.78;5079852;28;20044;-67
2021/04/29 07:32:42;;;;;;;21.25;11.85;;;;;;;13.37;49.10;99829.66;5073207;28;20059;-67
2021/04/29 07:35:09;;;;;;;26.13;14.15;;;;;;;13.25;48.44;99825.00;5074246;28;20418;-66
2021/04/29 07:37:35;;;;;;;24.83;13.38;;;;;;;13.03;49.29;99824.16;5077972;28;20051;-68
2021/04/29 07:40:01;;;;;;;26.23;13.18;;;;;;;12.94;50.31;99831.56;5076629;28;20092;-67
2021/04/29 07:42:27;;;;;;;16.58;12.23;;;;;;;13.00;49.83;99831.28;5068347;28;20101;-68
2021/04/29 07:44:54;;;;;;;25.25;12.75;;;;;;;13.14;49.46;99835.91;5071569;28;20147;-68
2021/04/29 07:47:20;;;;;;;21.65;13.43;;;;;;;13.13;49.91;99826.38;5079895;28;20045;-65
2021/04/29 07:49:46;;;;;;;23.98;16.08;;;;;;;13.27;49.40;99834.44;5078065;28;20101;-65
2021/04/29 07:52:12;;;;;;;22.98;15.93;;;;;;;13.36;49.98;99820.97;5069039;28;20049;-65
2021/04/29 07:54:38;;;;;;;33.50;20.67;;;;;;;13.40;49.29;99831.31;5076138;28;20067;-66
2021/04/29 07:57:04;;;;;;;28.08;17.50;;;;;;;13.42;50.15;99832.09;5079125;28;20048;-66
2021/04/29 07:59:30;;;;;;;35.53;20.27;;;;;;;13.70;49.63;99833.44;5082964;28;20135;-66
2021/04/29 08:01:57;;;;;;;27.00;17.63;;;;;;;13.88;49.37;99829.09;5078052;28;20044;-66
2021/04/29 08:04:24;;;;;;;28.25;17.35;;;;;;;13.92;50.20;99831.50;5079700;28;20109;-65
2021/04/29 08:06:50;;;;;;;34.47;18.45;;;;;;;14.18;49.11;99832.00;5071796;28;20044;-64
2021/04/29 08:09:16;;;;;;;28.20;20.48;;;;;;;14.28;48.93;99846.31;5071081;28;20049;-63
2021/04/29 08:11:42;;;;;;;28.92;21.73;;;;;;;14.30;48.66;99839.25;5076611;28;20445;-65
2021/04/29 08:14:08;;;;;;;32.30;21.30;;;;;;;14.07;49.56;99845.59;5078197;28;20063;-64
2021/04/29 08:16:34;;;;;;;32.15;22.40;;;;;;;14.08;50.09;99846.44;5078915;28;20048;-65
2021/04/29 08:19:01;;;;;;;31.55;20.40;;;;;;;14.10;50.19;99847.22;5077510;28;20532;-65
2021/04/29 08:21:28;;;;;;;35.70;25.13;;;;;;;13.98;52.17;99852.13;5077102;28;20059;-67
2021/04/29 08:23:55;;;;;;;38.83;27.10;;;;;;;14.23;51.16;99850.91;5082986;28;20050;-65
2021/04/29 08:26:21;;;;;;;35.55;25.65;;;;;;;14.47;50.01;99866.34;5075804;28;20078;-65
2021/04/29 08:28:47;;;;;;;38.00;26.77;;;;;;;14.60;50.22;99866.56;5077141;28;20394;-65
2021/04/29 08:31:13;;;;;;;37.38;27.00;;;;;;;14.41;50.20;99864.03;5070771;28;20055;-64
2021/04/29 08:33:39;;;;;;;43.22;26.48;;;;;;;14.33;50.00;99855.69;5074379;28;20045;-61
2021/04/29 08:36:08;;;;;;;38.63;28.08;;;;;;;13.93;51.33;99877.63;5073083;28;20187;-65
2021/04/29 08:38:34;;;;;;;35.47;25.92;;;;;;;13.61;52.46;99879.97;5076442;28;20051;-63
2021/04/29 08:41:00;;;;;;;34.55;26.90;;;;;;;13.29;52.94;99877.03;5078628;28;20421;-65
2021/04/29 08:43:26;;;;;;;39.03;28.05;;;;;;;12.95;53.67;99869.81;5076331;28;20139;-66
2021/04/29 08:45:52;;;;;;;40.35;28.42;;;;;;;12.73;54.53;99876.78;5075630;28;20452;-65
2021/04/29 08:48:22;;;;;;;39.63;28.75;;;;;;;12.60;54.92;99881.66;5070446;28;20129;-66
2021/04/29 08:50:48;;;;;;;35.92;26.80;;;;;;;12.50;55.33;99892.56;5061846;28;20090;-63
2021/04/29 08:53:15;;;;;;;39.15;26.98;;;;;;;12.75;54.71;99888.00;5079881;28;20044;-65
2021/04/29 08:55:42;;;;;;;47.50;30.52;;;;;;;12.78;55.01;99889.63;5076041;28;20052;-64
2021/04/29 08:58:09;;;;;;;41.22;27.95;;;;;;;12.99;53.88;99898.34;5070764;28;20510;-65
2021/04/29 09:00:35;;;;;;;42.05;28.25;;;;;;;13.13;52.95;99902.97;5076609;28;20056;-65
2021/04/29 09:03:01;;;;;;;37.35;27.73;;;;;;;13.20;52.19;99895.72;5064543;28;20036;-63
2021/04/29 09:05:30;;;;;;;36.25;25.20;;;;;;;13.34;52.20;99906.38;5066821;28;20584;-65
2021/04/29 09:07:58;;;;;;;38.35;26.90;;;;;;;13.29;51.97;99897.03;5068209;28;20577;-66
2021/04/29 09:10:28;;;;;;;39.20;27.20;;;;;;;13.12;52.94;99892.59;5074729;28;20603;-69
2021/04/29 09:12:54;;;;;;;34.13;24.25;;;;;;;13.24;52.64;99897.25;5082305;28;20058;-64
2021/04/29 09:15:30;;;;;;;34.30;25.48;;;;;;;13.21;52.81;99913.91;5072798;28;20437;-66
2021/04/29 09:18:11;;;;;;;37.45;25.25;;;;;;;13.25;52.54;99903.34;5068116;28;20568;-67
2021/04/29 09:20:48;;;;;;;39.20;25.52;;;;;;;13.15;52.20;99918.53;5062709;28;20047;-66
2021/04/29 09:23:18;;;;;;;39.67;24.13;;;;;;;13.37;51.44;99913.25;5065541;28;20786;-65
2021/04/29 09:25:52;;;;;;;36.03;26.02;;;;;;;13.30;51.28;99922.25;5061706;28;20510;-65
2021/04/29 09:28:18;;;;;;;33.88;24.42;;;;;;;13.43;51.02;99918.22;5059626;28;20074;-64
2021/04/29 09:30:44;;;;;;;39.33;25.67;;;;;;;13.18;52.24;99923.66;5059217;28;20048;-65
2021/04/29 09:33:10;;;;;;;37.08;26.15;;;;;;;13.58;52.23;99928.91;5077298;28;20075;-66
2021/04/29 09:35:38;;;;;;;30.30;20.50;;;;;;;13.96;53.35;99921.94;5069334;28;20147;-66
2021/04/29 09:38:10;;;;;;;34.03;21.27;;;;;;;14.40;51.73;99925.97;5071796;28;20044;-61
2021/04/29 09:40:39;;;;;;;34.15;26.52;;;;;;;14.91;49.35;99920.03;5070469;28;20045;-68
2021/04/29 09:43:07;;;;;;;38.35;25.40;;;;;;;15.07;47.12;99914.88;5079798;28;20090;-64
2021/04/29 09:45:34;;;;;;;35.88;24.70;;;;;;;15.07;47.04;99914.88;5070614;28;20466;-64
2021/04/29 09:48:03;;;;;;;36.47;23.60;;;;;;;15.29;47.01;99919.00;5074983;28;20212;-63
2021/04/29 09:50:31;;;;;;;29.67;22.58;;;;;;;15.61;46.08;99919.91;5074523;28;20047;-65
2021/04/29 09:53:02;;;;;;;34.47;22.27;;;;;;;15.35;46.20;99903.81;5072976;28;20086;-67
2021/04/29 09:55:29;;;;;;;27.45;18.45;;;;;;;15.54;43.50;99906.28;5069237;28;20048;-65
2021/04/29 09:58:13;;;;;;;26.90;17.90;;;;;;;15.31;43.46;99919.78;5071912;28;20082;-63
2021/04/29 10:00:40;;;;;;;29.42;19.90;;;;;;;15.02;44.84;99922.13;5079192;28;20052;-64
2021/04/29 10:03:06;;;;;;;28.52;20.02;;;;;;;14.95;45.14;99920.72;5065223;28;20060;-65
2021/04/29 10:05:36;;;;;;;31.38;20.05;;;;;;;14.69;46.33;99921.09;5075948;28;20040;-65
2021/04/29 10:08:03;;;;;;;29.75;18.15;;;;;;;14.76;45.09;99924.28;5076884;28;20052;-63
2021/04/29 10:10:32;;;;;;;24.42;17.73;;;;;;;14.76;45.02;99921.66;5066555;28;20057;-63
2021/04/29 10:13:02;;;;;;;27.58;18.73;;;;;;;14.86;45.53;99928.13;5075267;28;20676;-63
2021/04/29 10:15:31;;;;;;;28.10;17.58;;;;;;;14.78;46.36;99932.91;5070025;28;20048;-64
2021/04/29 10:17:58;;;;;;;28.63;18.92;;;;;;;14.73;46.42;99927.91;5067080;28;20532;-64
2021/04/29 10:20:26;;;;;;;28.77;19.55;;;;;;;14.66;47.45;99931.72;5077913;28;20172;-63
2021/04/29 10:22:52;;;;;;;22.30;16.52;;;;;;;14.51;45.98;99928.09;5083211;28;20502;-63
2021/04/29 10:25:28;;;;;;;23.40;14.85;;;;;;;14.43;46.09;99920.59;5082685;28;20386;-65
2021/04/29 10:27:55;;;;;;;22.90;13.88;;;;;;;14.59;44.40;99918.09;5070638;28;20056;-64
2021/04/29 10:30:32;;;;;;;27.50;15.77;;;;;;;14.68;44.62;99921.19;5076177;28;20047;-66
2021/04/29 10:32:58;;;;;;;22.90;14.68;;;;;;;14.83;44.20;99915.19;5078709;28;20040;-65
2021/04/29 10:35:26;;;;;;;21.40;12.75;;;;;;;14.66;44.81;99936.09;5081411;28;20045;-64
2021/04/29 10:37:57;;;;;;;20.98;12.60;;;;;;;14.43;44.83;99927.59;5079714;28;20045;-65
2021/04/29 10:40:35;;;;;;;18.25;11.93;;;;;;;14.35;45.14;99914.03;5082794;28;20048;-67
2021/04/29 10:43:01;;;;;;;16.70;11.68;;;;;;;14.39;45.54;99933.91;5081703;28;20044;-65
2021/04/29 10:45:27;;;;;;;19.48;12.55;;;;;;;14.40;46.10;99938.22;5073548;28;20051;-66
2021/04/29 10:48:05;;;;;;;18.23;11.77;;;;;;;14.02;47.42;99933.03;5082709;28;20045;-65
2021/04/29 10:50:42;;;;;;;17.40;10.27;;;;;;;13.96;46.81;99948.06;5073599;28;20052;-66
2021/04/29 10:53:08;;;;;;;16.48;9.95;;;;;;;14.09;45.74;99937.06;5073666;28;20447;-66
2021/04/29 10:55:38;;;;;;;19.83;10.40;;;;;;;14.36;45.37;99934.03;5064380;28;20114;-66
2021/04/29 10:58:06;;;;;;;17.55;9.15;;;;;;;14.62;44.60;99935.41;5070394;28;20113;-66
2021/04/29 11:00:34;;;;;;;15.52;9.00;;;;;;;14.84;43.52;99939.59;5074774;28;20041;-66
2021/04/29 11:03:01;;;;;;;13.35;8.20;;;;;;;15.04;43.76;99939.44;5071549;28;20048;-66
2021/04/29 11:05:29;;;;;;;11.80;7.28;;;;;;;15.21;42.60;99948.22;5062299;28;20045;-66
2021/04/29 11:08:03;;;;;;;17.42;7.55;;;;;;;14.90;43.78;99948.00;5079206;28;20053;-66
2021/04/29 11:10:33;;;;;;;13.48;7.70;;;;;;;14.77;44.55;99952.97;5076103;28;20051;-65
2021/04/29 11:12:59;;;;;;;21.42;7.25;;;;;;;14.58;44.87;99958.25;5078829;28;20044;-66
2021/04/29 11:15:27;;;;;;;12.93;6.72;;;;;;;14.41;45.28;99955.63;5069363;28;20459;-65
2021/04/29 11:18:03;;;;;;;18.27;7.43;;;;;;;14.54;44.15;99961.09;5063070;28;20044;-67